createdAt,value
2022-11-05T00:02:55.707Z,1.70
2022-11-05T00:06:00.858Z,1.37
2022-11-05T00:09:06.356Z,2.17
2022-11-05T00:12:11.027Z,1.80
2022-11-05T00:15:27.143Z,1.87
2022-11-05T00:18:14.183Z,1.63
2022-11-05T00:21:00.694Z,2.07
2022-11-05T00:24:06.636Z,1.60
2022-11-05T00:26:53.614Z,1.40
2022-11-05T00:29:40.408Z,1.70
2022-11-05T00:32:27.308Z,1.67
2022-11-05T00:35:14.321Z,1.87
2022-11-05T00:38:01.272Z,1.50
2022-11-05T00:40:49.549Z,1.40
2022-11-05T00:43:54.111Z,1.57
2022-11-05T00:46:41.461Z,1.43
2022-11-05T00:49:29.975Z,1.40
2022-11-05T00:52:34.245Z,1.70
2022-11-05T00:55:21.199Z,1.10
2022-11-05T00:58:11.490Z,1.57
2022-11-05T01:01:00.172Z,1.47
2022-11-05T01:03:51.511Z,1.53
2022-11-05T01:06:38.901Z,1.33
2022-11-05T01:09:25.484Z,1.53
2022-11-05T01:12:12.305Z,1.50
2022-11-05T01:15:00.599Z,1.60
2022-11-05T01:17:47.740Z,1.20
2022-11-05T01:20:34.701Z,1.50
2022-11-05T01:23:21.886Z,1.67
2022-11-05T01:26:09.034Z,1.57
2022-11-05T01:28:57.654Z,1.60
2022-11-05T01:31:45.760Z,1.27
2022-11-05T01:34:32.832Z,1.20
2022-11-05T01:37:19.774Z,1.80
2022-11-05T01:40:08.135Z,1.50
2022-11-05T01:42:54.848Z,1.50
2022-11-05T01:45:42.354Z,1.30
2022-11-05T01:48:34.507Z,0.97
2022-11-05T01:51:26.020Z,1.10
2022-11-05T01:54:17.816Z,0.87
2022-11-05T01:57:10.091Z,1.17
2022-11-05T01:59:59.541Z,1.00
2022-11-05T02:02:46.583Z,1.00
2022-11-05T02:05:35.889Z,1.00
2022-11-05T02:08:37.800Z,1.23
2022-11-05T02:11:25.422Z,1.03
2022-11-05T02:14:12.065Z,1.13
2022-11-05T02:17:05.475Z,0.77
2022-11-05T02:20:20.149Z,1.30
2022-11-05T02:23:49.779Z,0.93
2022-11-05T02:27:05.379Z,1.30
2022-11-05T02:30:22.355Z,0.80
2022-11-05T02:33:27.314Z,0.73
2022-11-05T02:36:32.476Z,0.90
2022-11-05T02:39:40.185Z,1.10
2022-11-05T02:42:35.476Z,0.93
2022-11-05T02:45:33.855Z,0.60
2022-11-05T02:48:28.011Z,0.70
2022-11-05T02:51:23.490Z,0.87
2022-11-05T02:54:17.771Z,0.70
2022-11-05T02:57:06.098Z,0.77
2022-11-05T03:00:02.132Z,0.80
2022-11-05T03:02:49.166Z,0.80
2022-11-05T03:05:45.272Z,0.70
2022-11-05T03:08:44.415Z,0.80
2022-11-05T03:11:33.832Z,1.00
2022-11-05T03:14:25.819Z,0.70
2022-11-05T03:17:22.807Z,0.80
2022-11-05T03:20:17.874Z,0.83
2022-11-05T03:23:14.273Z,0.70
2022-11-05T03:26:09.667Z,0.90
2022-11-05T03:29:02.571Z,0.60
2022-11-05T03:31:53.344Z,0.80
2022-11-05T03:34:44.658Z,0.97
2022-11-05T03:37:36.475Z,0.87
2022-11-05T03:40:26.310Z,1.03
2022-11-05T03:43:15.096Z,0.70
2022-11-05T03:46:06.131Z,0.80
2022-11-05T03:48:55.451Z,0.80
2022-11-05T03:51:47.935Z,1.07
2022-11-05T03:54:35.956Z,1.00
2022-11-05T03:57:27.344Z,1.13
2022-11-05T04:00:14.934Z,0.70
2022-11-05T04:03:01.979Z,0.90
2022-11-05T04:06:09.632Z,1.00
2022-11-05T04:09:14.054Z,0.80
2022-11-05T04:12:18.564Z,0.67
2022-11-05T04:15:07.763Z,0.70
2022-11-05T04:17:54.035Z,0.70
2022-11-05T04:20:58.274Z,0.73
2022-11-05T04:24:02.466Z,1.27
2022-11-05T04:26:50.514Z,0.73
2022-11-05T04:29:54.930Z,0.47
2022-11-05T04:32:43.620Z,0.70
2022-11-05T04:35:32.486Z,0.40
2022-11-05T04:38:20.871Z,0.50
2022-11-05T04:41:17.366Z,0.70
2022-11-05T04:44:04.559Z,0.60
2022-11-05T04:46:51.311Z,0.60
2022-11-05T04:49:39.873Z,0.60
2022-11-05T04:52:27.184Z,0.43
2022-11-05T04:55:14.055Z,0.40
2022-11-05T04:58:00.582Z,0.60
2022-11-05T05:00:47.482Z,0.20
2022-11-05T05:03:34.521Z,0.40
2022-11-05T05:06:23.190Z,0.30
2022-11-05T05:09:10.181Z,0.33
2022-11-05T05:11:57.046Z,0.53
2022-11-05T05:14:43.889Z,0.50
2022-11-05T05:17:30.977Z,0.30
2022-11-05T05:20:35.610Z,0.47
2022-11-05T05:23:23.976Z,0.23
2022-11-05T05:26:11.520Z,0.40
2022-11-05T05:28:58.439Z,0.30
2022-11-05T05:31:46.435Z,0.40
2022-11-05T05:34:34.260Z,0.30
2022-11-05T05:37:21.489Z,0.27
2022-11-05T05:40:11.276Z,0.20
2022-11-05T05:42:58.046Z,0.20
2022-11-05T05:45:44.976Z,0.20
2022-11-05T05:48:31.978Z,0.20
2022-11-05T05:51:19.928Z,0.20
2022-11-05T05:54:07.344Z,0.20
2022-11-05T05:56:55.600Z,0.20
2022-11-05T05:59:42.801Z,0.40
2022-11-05T06:02:31.820Z,0.20
2022-11-05T06:05:18.810Z,0.40
2022-11-05T06:08:06.089Z,0.23
2022-11-05T06:10:53.340Z,0.20
2022-11-05T06:13:41.904Z,0.30
2022-11-05T06:16:29.719Z,0.20
2022-11-05T06:19:16.735Z,0.20
2022-11-05T06:22:03.606Z,0.30
2022-11-05T06:24:50.470Z,0.20
2022-11-05T06:27:37.436Z,0.20
2022-11-05T06:30:25.980Z,0.40
2022-11-05T06:33:13.459Z,0.50
2022-11-05T06:36:01.233Z,0.40
2022-11-05T06:38:47.800Z,0.47
2022-11-05T06:41:45.670Z,0.30
2022-11-05T06:44:41.710Z,0.50
2022-11-05T06:47:30.069Z,0.33
2022-11-05T06:50:17.142Z,0.30
2022-11-05T06:53:05.269Z,0.30
2022-11-05T06:55:52.947Z,0.33
2022-11-05T06:58:39.954Z,0.40
2022-11-05T07:01:27.084Z,0.40
2022-11-05T07:04:15.921Z,0.70
2022-11-05T07:07:03.502Z,0.40
2022-11-05T07:09:53.522Z,0.40
2022-11-05T07:12:40.736Z,0.50
2022-11-05T07:15:27.596Z,0.70
2022-11-05T07:18:14.577Z,0.83
2022-11-05T07:21:02.914Z,1.90
2022-11-05T07:23:50.251Z,1.53
2022-11-05T07:26:37.169Z,3.00
2022-11-05T07:29:24.162Z,2.77
2022-11-05T07:32:11.346Z,2.10
2022-11-05T07:34:58.264Z,3.40
2022-11-05T07:37:47.617Z,2.90
2022-11-05T07:40:34.642Z,3.33
2022-11-05T07:43:21.918Z,2.70
2022-11-05T07:46:13.696Z,2.47
2022-11-05T07:49:01.355Z,2.73
2022-11-05T07:51:52.577Z,3.20
2022-11-05T07:54:41.640Z,3.17
2022-11-05T07:57:28.863Z,2.90
2022-11-05T08:00:18.436Z,2.87
2022-11-05T08:03:08.999Z,2.70
2022-11-05T08:05:56.293Z,3.33
2022-11-05T08:08:43.457Z,3.20
2022-11-05T08:11:32.729Z,2.63
2022-11-05T08:14:19.540Z,2.90
2022-11-05T08:17:07.828Z,3.17
2022-11-05T08:19:55.024Z,3.17
2022-11-05T08:22:44.725Z,2.80
2022-11-05T08:25:32.060Z,2.73
2022-11-05T08:28:21.926Z,2.40
2022-11-05T08:31:09.009Z,2.47
2022-11-05T08:34:01.315Z,2.30
2022-11-05T08:36:49.595Z,2.37
2022-11-05T08:39:37.759Z,1.83
2022-11-05T08:42:25.555Z,2.40
2022-11-05T08:45:13.767Z,2.23
2022-11-05T08:48:01.675Z,2.40
2022-11-05T08:50:50.274Z,2.27
2022-11-05T08:53:38.008Z,2.10
2022-11-05T08:56:25.411Z,2.20
2022-11-05T08:59:12.149Z,1.90
2022-11-05T09:02:00.396Z,1.83
2022-11-05T09:04:47.548Z,2.07
2022-11-05T09:07:34.568Z,2.43
2022-11-05T09:10:21.885Z,2.00
2022-11-05T09:13:14.726Z,1.97
2022-11-05T09:16:03.848Z,2.17
2022-11-05T09:18:52.553Z,2.17
2022-11-05T09:21:39.412Z,2.40
2022-11-05T09:24:26.500Z,2.70
2022-11-05T09:27:14.733Z,2.70
2022-11-05T09:30:02.667Z,2.63
2022-11-05T09:32:49.665Z,2.27
2022-11-05T09:35:39.769Z,2.40
2022-11-05T09:38:27.080Z,2.10
2022-11-05T09:41:24.088Z,2.30
2022-11-05T09:44:17.074Z,2.47
2022-11-05T09:47:08.709Z,2.33
2022-11-05T09:49:58.418Z,2.60
2022-11-05T09:52:47.110Z,2.63
2022-11-05T09:55:37.729Z,2.73
2022-11-05T09:58:43.704Z,2.47
2022-11-05T10:01:35.539Z,2.20
2022-11-05T10:04:26.082Z,3.03
2022-11-05T10:07:19.983Z,3.10
2022-11-05T10:10:16.832Z,2.87
2022-11-05T10:13:08.567Z,3.20
2022-11-05T10:16:02.861Z,3.10
2022-11-05T10:18:53.534Z,2.87
2022-11-05T10:24:49.142Z,2.90
2022-11-05T10:27:39.057Z,3.07
2022-11-05T10:30:26.560Z,3.07
2022-11-05T10:33:16.404Z,3.03
2022-11-05T10:36:07.635Z,3.00
2022-11-05T10:38:58.213Z,3.13
2022-11-05T10:41:56.361Z,3.30
2022-11-05T10:44:48.979Z,2.97
2022-11-05T10:47:57.136Z,3.20
2022-11-05T10:50:45.662Z,2.90
2022-11-05T10:53:35.658Z,2.83
2022-11-05T10:56:35.177Z,2.80
2022-11-05T10:59:24.917Z,2.97
2022-11-05T11:02:21.985Z,2.93
2022-11-05T11:05:09.646Z,3.00
2022-11-05T11:08:17.171Z,2.63
2022-11-05T11:11:10.176Z,2.73
2022-11-05T11:14:06.418Z,3.00
2022-11-05T11:16:57.360Z,2.80
2022-11-05T11:19:46.720Z,2.40
2022-11-05T11:22:33.664Z,2.60
2022-11-05T11:25:26.419Z,2.57
2022-11-05T11:28:20.196Z,3.30
2022-11-05T11:31:10.788Z,2.70
2022-11-05T11:34:02.393Z,3.10
2022-11-05T11:36:54.827Z,2.30
2022-11-05T11:39:44.551Z,2.97
2022-11-05T11:42:34.820Z,2.53
2022-11-05T11:45:25.881Z,2.67
2022-11-05T11:48:18.868Z,2.13
2022-11-05T11:51:18.985Z,2.00
2022-11-05T11:54:20.193Z,1.97
2022-11-05T11:57:22.932Z,1.90
2022-11-05T12:00:10.889Z,2.17
2022-11-05T12:03:12.434Z,1.97
2022-11-05T12:06:06.851Z,1.60
2022-11-05T12:09:06.939Z,1.83
2022-11-05T12:12:04.091Z,2.03
2022-11-05T12:14:57.399Z,1.70
2022-11-05T12:17:51.768Z,2.03
2022-11-05T12:20:58.378Z,1.97
2022-11-05T12:24:08.273Z,1.70
2022-11-05T12:27:07.692Z,1.73
2022-11-05T12:30:02.637Z,2.20
2022-11-05T12:33:14.125Z,1.83
2022-11-05T12:36:15.799Z,2.27
2022-11-05T12:39:44.547Z,2.10
2022-11-05T12:42:45.612Z,2.00
2022-11-05T12:45:45.073Z,2.17
2022-11-05T12:48:55.226Z,2.00
2022-11-05T12:51:57.491Z,2.03
2022-11-05T12:54:59.153Z,2.27
2022-11-05T12:57:50.477Z,2.30
2022-11-05T13:00:39.314Z,2.17
2022-11-05T13:03:32.381Z,3.00
2022-11-05T13:06:23.198Z,1.80
2022-11-05T13:09:15.957Z,1.77
2022-11-05T13:12:07.820Z,2.20
2022-11-05T13:14:59.842Z,1.50
2022-11-05T13:17:52.923Z,1.83
2022-11-05T13:20:43.220Z,1.50
2022-11-05T13:23:36.577Z,1.80
2022-11-05T13:26:29.686Z,1.60
2022-11-05T13:29:21.897Z,1.47
2022-11-05T13:32:30.293Z,1.37
2022-11-05T13:35:21.654Z,1.27
2022-11-05T13:38:32.304Z,1.60
2022-11-05T13:41:29.194Z,1.17
2022-11-05T13:44:53.719Z,1.20
2022-11-05T13:47:57.645Z,1.37
2022-11-05T13:51:19.782Z,1.60
2022-11-05T13:54:35.013Z,1.57
2022-11-05T13:57:38.778Z,1.50
2022-11-05T14:00:28.629Z,1.80
2022-11-05T14:03:21.440Z,1.80
2022-11-05T14:06:11.067Z,1.77
2022-11-05T14:09:02.144Z,1.97
2022-11-05T14:11:52.672Z,2.10
2022-11-05T14:14:46.998Z,1.87
2022-11-05T14:17:36.627Z,1.97
2022-11-05T14:20:54.302Z,1.50
2022-11-05T14:23:50.072Z,1.83
2022-11-05T14:26:36.937Z,1.57
2022-11-05T14:29:26.091Z,1.50
2022-11-05T14:32:29.538Z,1.50
2022-11-05T14:35:38.273Z,1.77
2022-11-05T14:38:27.499Z,1.47
2022-11-05T14:41:14.913Z,1.40
2022-11-05T14:44:06.796Z,1.20
2022-11-05T14:46:57.429Z,1.83
2022-11-05T14:49:53.173Z,1.70
2022-11-05T14:52:51.327Z,1.80
2022-11-05T14:55:41.109Z,1.70
2022-11-05T14:58:37.125Z,1.50
2022-11-05T15:01:55.085Z,1.40
2022-11-05T15:04:45.685Z,1.80
2022-11-05T15:07:38.839Z,1.93
2022-11-05T15:10:33.234Z,1.93
2022-11-05T15:13:29.892Z,1.50
2022-11-05T15:16:22.076Z,1.50
2022-11-05T15:19:17.843Z,2.43
2022-11-05T15:22:07.796Z,1.37
2022-11-05T15:25:15.398Z,1.50
2022-11-05T15:28:09.209Z,1.53
2022-11-05T15:31:02.483Z,1.33
2022-11-05T15:33:49.784Z,1.70
2022-11-05T15:36:36.915Z,2.43
2022-11-05T15:39:29.926Z,1.70
2022-11-05T15:42:22.316Z,1.80
2022-11-05T15:45:21.891Z,1.73
2022-11-05T15:48:16.458Z,1.90
2022-11-05T15:51:03.747Z,2.40
2022-11-05T15:54:28.600Z,1.77
2022-11-05T15:57:06.334Z,1.60
2022-11-05T15:59:53.442Z,1.47
2022-11-05T16:02:42.484Z,1.50
2022-11-05T16:05:34.879Z,2.30
2022-11-05T16:08:23.756Z,2.20
2022-11-05T16:11:10.826Z,1.87
2022-11-05T16:14:17.204Z,2.53
2022-11-05T16:17:18.557Z,2.47
2022-11-05T16:20:22.842Z,2.30
2022-11-05T16:23:25.243Z,1.90
2022-11-05T16:27:01.393Z,2.40
2022-11-05T16:29:52.833Z,2.13
2022-11-05T16:32:39.769Z,2.00
2022-11-05T16:35:28.132Z,2.20
2022-11-05T16:38:15.323Z,1.87
2022-11-05T16:41:02.250Z,2.80
2022-11-05T16:43:54.274Z,2.37
2022-11-05T16:46:45.436Z,2.20
2022-11-05T16:49:32.849Z,2.00
2022-11-05T16:52:21.350Z,2.73
2022-11-05T16:55:08.337Z,2.67
2022-11-05T16:57:56.552Z,3.20
2022-11-05T17:00:43.824Z,1.97
2022-11-05T17:03:30.909Z,2.23
2022-11-05T17:06:19.633Z,2.77
2022-11-05T17:09:07.870Z,2.20
2022-11-05T17:11:54.814Z,1.93
2022-11-05T17:14:42.401Z,2.00
2022-11-05T17:17:30.253Z,1.93
2022-11-05T17:20:26.934Z,2.37
2022-11-05T17:23:16.987Z,2.10
2022-11-05T17:26:08.419Z,2.00
2022-11-05T17:28:55.224Z,2.63
2022-11-05T17:31:42.489Z,2.03
2022-11-05T17:34:29.205Z,2.00
2022-11-05T17:37:16.098Z,1.90
2022-11-05T17:40:02.822Z,1.83
2022-11-05T17:42:52.226Z,1.60
2022-11-05T17:45:43.939Z,1.50
2022-11-05T17:48:31.061Z,1.30
2022-11-05T17:51:20.216Z,1.63
2022-11-05T17:55:13.478Z,2.03
2022-11-05T17:58:02.087Z,2.10
2022-11-05T18:00:49.647Z,1.30
2022-11-05T18:03:37.051Z,1.40
2022-11-05T18:06:24.391Z,1.90
2022-11-05T18:09:12.224Z,1.83
2022-11-05T18:11:59.742Z,2.10
2022-11-05T18:14:48.235Z,2.03
2022-11-05T18:17:35.312Z,1.90
2022-11-05T18:20:22.429Z,2.07
2022-11-05T18:23:09.697Z,2.00
2022-11-05T18:25:56.869Z,1.77
2022-11-05T18:28:44.884Z,1.80
2022-11-05T18:31:33.838Z,1.80
2022-11-05T18:34:20.875Z,2.40
2022-11-05T18:37:07.693Z,2.57
2022-11-05T18:40:12.909Z,1.83
2022-11-05T18:43:35.368Z,2.47
2022-11-05T18:46:51.276Z,1.73
2022-11-05T18:49:32.155Z,2.27
2022-11-05T18:52:19.420Z,2.40
2022-11-05T18:55:08.454Z,2.57
2022-11-05T18:57:55.475Z,2.17
2022-11-05T19:00:43.009Z,2.10
2022-11-05T19:03:30.130Z,1.90
2022-11-05T19:06:18.681Z,3.97
2022-11-05T19:09:15.498Z,5.73
2022-11-05T19:12:04.352Z,3.90
2022-11-05T19:15:33.637Z,2.43
2022-11-05T19:18:38.971Z,2.27
2022-11-05T19:21:30.481Z,2.60
2022-11-05T19:24:19.066Z,1.70
2022-11-05T19:27:06.126Z,2.50
2022-11-05T19:29:53.549Z,2.40
2022-11-05T19:32:40.364Z,2.40
2022-11-05T19:35:28.276Z,2.50
2022-11-05T19:38:16.555Z,2.50
2022-11-05T19:41:08.032Z,2.17
2022-11-05T19:43:58.055Z,2.60
2022-11-05T19:46:45.330Z,2.07
2022-11-05T19:49:32.595Z,3.27
2022-11-05T19:52:19.688Z,3.03
2022-11-05T19:55:12.137Z,5.20
2022-11-05T19:57:59.663Z,2.63
2022-11-05T20:00:47.109Z,2.90
2022-11-05T20:03:34.188Z,2.20
2022-11-05T20:06:24.016Z,3.53
2022-11-05T20:09:22.707Z,4.50
2022-11-05T20:12:13.552Z,3.10
2022-11-05T20:15:00.608Z,2.10
2022-11-05T20:17:51.371Z,6.00
2022-11-05T20:20:38.349Z,2.23
2022-11-05T20:23:25.415Z,4.33
2022-11-05T20:26:13.970Z,5.40
2022-11-05T20:29:02.852Z,2.70
2022-11-05T20:31:50.165Z,1.50
2022-11-05T20:34:38.294Z,1.97
2022-11-05T20:37:25.263Z,1.83
2022-11-05T20:40:14.110Z,1.50
2022-11-05T20:43:01.127Z,1.80
2022-11-05T20:45:57.798Z,2.47
2022-11-05T20:48:45.268Z,1.67
2022-11-05T20:51:32.123Z,2.20
2022-11-05T20:54:24.966Z,1.53
2022-11-05T20:57:12.163Z,1.40
2022-11-05T20:59:59.240Z,1.53
2022-11-05T21:02:47.978Z,2.37
2022-11-05T21:05:35.804Z,1.77
2022-11-05T21:08:23.328Z,2.10
2022-11-05T21:11:11.287Z,3.07
2022-11-05T21:13:59.818Z,2.17
2022-11-05T21:16:46.654Z,1.50
2022-11-05T21:19:36.503Z,2.03
2022-11-05T21:22:23.289Z,2.77
2022-11-05T21:25:10.981Z,2.57
2022-11-05T21:27:58.738Z,2.50
2022-11-05T21:30:49.223Z,1.80
2022-11-05T21:33:36.573Z,2.07
2022-11-05T21:36:25.188Z,1.47
2022-11-05T21:39:13.825Z,1.63
2022-11-05T21:42:01.457Z,1.30
2022-11-05T21:44:48.267Z,1.40
2022-11-05T21:47:35.255Z,1.40
2022-11-05T21:50:44.328Z,1.37
2022-11-05T21:53:50.689Z,1.73
2022-11-05T21:57:10.683Z,1.40
2022-11-05T22:00:00.606Z,1.87
2022-11-05T22:02:47.997Z,1.70
2022-11-05T22:05:35.005Z,1.60
2022-11-05T22:08:21.965Z,1.53
2022-11-05T22:11:10.304Z,1.17
2022-11-05T22:13:57.297Z,2.00
2022-11-05T22:16:44.560Z,1.50
2022-11-05T22:19:31.709Z,1.50
2022-11-05T22:22:18.892Z,1.50
2022-11-05T22:25:06.621Z,1.40
2022-11-05T22:27:54.851Z,1.60
2022-11-05T22:30:42.153Z,1.47
2022-11-05T22:33:29.300Z,1.57
2022-11-05T22:36:16.149Z,1.60
2022-11-05T22:39:03.738Z,2.20
2022-11-05T22:41:54.126Z,1.33
2022-11-05T22:44:42.977Z,1.67
2022-11-05T22:47:30.080Z,1.53
2022-11-05T22:50:17.466Z,1.50
2022-11-05T22:53:04.472Z,1.60
2022-11-05T22:55:51.225Z,9.13
2022-11-05T22:58:38.542Z,2.93
2022-11-05T23:01:27.599Z,2.60
2022-11-05T23:04:15.828Z,2.07
2022-11-05T23:07:24.584Z,1.93
2022-11-05T23:10:32.031Z,1.57
2022-11-05T23:13:18.774Z,1.70
2022-11-05T23:16:23.623Z,1.70
2022-11-05T23:19:28.953Z,1.40
2022-11-05T23:22:35.113Z,1.77
2022-11-05T23:25:23.761Z,1.97
2022-11-05T23:28:12.309Z,1.90
2022-11-05T23:31:17.278Z,1.83
2022-11-05T23:34:04.073Z,1.73
2022-11-05T23:37:09.407Z,1.47
2022-11-05T23:39:56.323Z,1.37
2022-11-05T23:43:00.568Z,2.00
2022-11-05T23:46:19.197Z,2.10
2022-11-05T23:49:06.258Z,3.17
2022-11-05T23:51:54.799Z,2.00
2022-11-05T23:54:41.646Z,2.13
2022-11-05T23:57:28.879Z,2.93
